createdAt,value
2022-08-19T00:01:53.799Z,26.57
2022-08-19T00:04:26.172Z,29.23
2022-08-19T00:06:54.919Z,30.73
2022-08-19T00:09:24.392Z,28.33
2022-08-19T00:11:52.990Z,29.87
2022-08-19T00:14:22.698Z,29.33
2022-08-19T00:16:52.345Z,34.03
2022-08-19T00:19:20.190Z,29.80
2022-08-19T00:21:49.428Z,33.57
2022-08-19T00:24:17.553Z,33.37
2022-08-19T00:26:46.233Z,32.90
2022-08-19T00:29:16.398Z,32.27
2022-08-19T00:31:44.952Z,33.73
2022-08-19T00:34:13.434Z,38.47
2022-08-19T00:36:41.937Z,36.03
2022-08-19T00:39:12.046Z,37.03
2022-08-19T00:41:40.115Z,39.20
2022-08-19T00:44:11.161Z,37.80
2022-08-19T00:46:41.074Z,38.33
2022-08-19T00:49:15.350Z,38.37
2022-08-19T00:51:44.366Z,41.07
2022-08-19T00:54:14.134Z,44.93
2022-08-19T00:56:42.879Z,46.47
2022-08-19T00:59:11.652Z,47.00
2022-08-19T01:01:40.748Z,52.63
2022-08-19T01:04:09.364Z,49.53
2022-08-19T01:06:39.195Z,50.67
2022-08-19T01:09:07.790Z,46.57
2022-08-19T01:11:41.422Z,50.53
2022-08-19T01:14:10.135Z,49.40
2022-08-19T01:16:41.096Z,48.37
2022-08-19T01:19:15.253Z,46.10
2022-08-19T01:21:49.939Z,48.23
2022-08-19T01:24:19.221Z,49.77
2022-08-19T01:26:47.962Z,50.20
2022-08-19T01:29:17.134Z,51.50
2022-08-19T01:31:44.914Z,53.30
2022-08-19T01:34:12.774Z,54.07
2022-08-19T01:36:46.702Z,50.20
2022-08-19T01:39:18.123Z,50.13
2022-08-19T01:41:47.339Z,53.20
2022-08-19T01:44:19.351Z,52.50
2022-08-19T01:46:49.070Z,51.53
2022-08-19T01:49:18.586Z,50.20
2022-08-19T01:51:46.633Z,50.23
2022-08-19T01:54:23.383Z,52.07
2022-08-19T01:57:02.049Z,57.00
2022-08-19T01:59:30.381Z,57.33
2022-08-19T02:01:58.248Z,52.67
2022-08-19T02:04:26.481Z,51.00
2022-08-19T02:06:54.365Z,48.30
2022-08-19T02:09:22.273Z,48.37
2022-08-19T02:11:50.304Z,51.83
2022-08-19T02:14:19.510Z,52.43
2022-08-19T02:16:47.332Z,50.87
2022-08-19T02:19:15.196Z,49.27
2022-08-19T02:21:44.486Z,47.60
2022-08-19T02:24:13.123Z,46.73
2022-08-19T02:26:41.112Z,49.37
2022-08-19T02:29:09.804Z,43.50
2022-08-19T02:31:38.918Z,45.43
2022-08-19T02:34:06.735Z,45.57
2022-08-19T02:36:34.573Z,45.07
2022-08-19T02:39:01.621Z,43.70
2022-08-19T02:41:31.732Z,46.03
2022-08-19T02:44:28.732Z,48.17
2022-08-19T02:46:52.576Z,43.63
2022-08-19T02:49:21.405Z,45.03
2022-08-19T02:51:49.551Z,45.53
2022-08-19T02:54:18.276Z,47.63
2022-08-19T02:56:47.378Z,47.27
2022-08-19T02:59:15.594Z,46.63
2022-08-19T03:01:44.101Z,49.00
2022-08-19T03:04:15.232Z,47.20
2022-08-19T03:06:45.977Z,51.40
2022-08-19T03:09:14.368Z,48.60
2022-08-19T03:11:42.295Z,55.53
2022-08-19T03:14:11.817Z,56.80
2022-08-19T03:16:44.812Z,54.50
2022-08-19T03:19:14.806Z,52.57
2022-08-19T03:21:45.481Z,52.03
2022-08-19T03:24:14.459Z,55.23
2022-08-19T03:26:43.358Z,58.43
2022-08-19T03:29:12.037Z,54.17
2022-08-19T03:31:52.316Z,56.73
2022-08-19T03:34:27.129Z,58.97
2022-08-19T03:36:56.830Z,54.10
2022-08-19T03:39:26.367Z,56.27
2022-08-19T03:42:33.031Z,60.97
2022-08-19T03:44:46.579Z,50.87
2022-08-19T03:47:17.433Z,50.33
2022-08-19T03:49:47.219Z,52.67
2022-08-19T03:52:16.488Z,59.47
2022-08-19T03:54:44.295Z,54.67
2022-08-19T03:57:12.465Z,57.90
2022-08-19T03:59:40.380Z,45.27
2022-08-19T04:02:11.058Z,52.97
2022-08-19T04:04:40.204Z,49.60
2022-08-19T04:07:10.308Z,53.27
2022-08-19T04:09:38.518Z,51.43
2022-08-19T04:12:07.520Z,56.97
2022-08-19T04:14:36.519Z,49.57
2022-08-19T04:17:06.302Z,53.13
2022-08-19T04:19:34.982Z,45.73
2022-08-19T04:22:03.158Z,52.77
2022-08-19T04:24:32.991Z,50.97
2022-08-19T04:27:02.977Z,50.93
2022-08-19T04:29:31.520Z,51.27
2022-08-19T04:32:00.428Z,46.77
2022-08-19T04:34:37.498Z,44.30
2022-08-19T04:37:25.595Z,48.17
2022-08-19T04:40:12.571Z,42.10
2022-08-19T04:42:40.421Z,48.40
2022-08-19T04:45:12.264Z,52.47
2022-08-19T04:47:47.890Z,48.47
2022-08-19T04:50:20.824Z,52.57
2022-08-19T04:52:48.796Z,45.63
2022-08-19T04:55:18.873Z,48.43
2022-08-19T04:57:46.754Z,55.10
2022-08-19T05:00:15.157Z,56.37
2022-08-19T05:02:43.191Z,51.57
2022-08-19T05:05:11.036Z,53.10
2022-08-19T05:07:39.061Z,56.80
2022-08-19T05:10:08.203Z,55.17
2022-08-19T05:12:37.742Z,55.80
2022-08-19T05:15:07.888Z,53.93
2022-08-19T05:17:38.735Z,52.73
2022-08-19T05:20:26.234Z,57.60
2022-08-19T05:22:54.327Z,51.60
2022-08-19T05:25:23.326Z,51.67
2022-08-19T05:27:52.601Z,54.67
2022-08-19T05:30:42.193Z,50.33
2022-08-19T05:33:10.006Z,50.73
2022-08-19T05:35:38.273Z,53.70
2022-08-19T05:38:07.659Z,53.53
2022-08-19T05:40:36.975Z,54.63
2022-08-19T05:43:08.312Z,49.97
2022-08-19T05:45:42.430Z,49.53
2022-08-19T05:48:12.139Z,49.70
2022-08-19T05:50:40.917Z,48.57
2022-08-19T05:53:09.681Z,50.90
2022-08-19T05:55:39.075Z,51.40
2022-08-19T05:58:08.894Z,53.93
2022-08-19T06:00:36.940Z,48.90
2022-08-19T06:03:12.470Z,51.80
2022-08-19T06:05:49.728Z,49.57
2022-08-19T06:08:34.335Z,52.13
2022-08-19T06:11:16.860Z,52.37
2022-08-19T06:13:51.427Z,47.97
2022-08-19T06:16:23.166Z,48.93
2022-08-19T06:18:53.342Z,58.00
2022-08-19T06:21:22.097Z,51.83
2022-08-19T06:23:51.930Z,54.60
2022-08-19T06:26:21.104Z,60.07
2022-08-19T06:28:51.277Z,52.97
2022-08-19T06:31:22.269Z,47.67
2022-08-19T06:33:51.152Z,53.50
2022-08-19T06:36:21.873Z,49.77
2022-08-19T06:38:53.802Z,52.97
2022-08-19T06:41:21.923Z,55.37
2022-08-19T06:43:52.569Z,48.53
2022-08-19T06:46:22.481Z,55.63
2022-08-19T06:48:50.780Z,54.47
2022-08-19T06:51:20.453Z,52.60
2022-08-19T06:56:21.850Z,55.00
2022-08-19T06:58:52.682Z,53.87
2022-08-19T07:01:21.573Z,46.83
2022-08-19T07:03:49.367Z,48.30
2022-08-19T07:06:43.095Z,48.90
2022-08-19T07:09:11.942Z,48.03
2022-08-19T07:11:40.295Z,51.77
2022-08-19T07:14:19.571Z,58.27
2022-08-19T07:16:49.697Z,51.23
2022-08-19T07:19:18.958Z,49.27
2022-08-19T07:21:51.932Z,54.67
2022-08-19T07:24:20.942Z,49.87
2022-08-19T07:26:51.873Z,47.77
2022-08-19T07:29:24.122Z,48.17
2022-08-19T07:31:55.823Z,49.97
2022-08-19T07:34:24.686Z,53.33
2022-08-19T07:36:52.944Z,49.90
2022-08-19T07:39:23.658Z,54.13
2022-08-19T07:41:52.260Z,52.37
2022-08-19T07:44:22.207Z,56.70
2022-08-19T07:46:53.339Z,49.93
2022-08-19T07:49:22.405Z,50.80
2022-08-19T07:51:52.207Z,51.10
2022-08-19T07:54:21.488Z,51.47
2022-08-19T07:56:50.400Z,56.00
2022-08-19T07:59:23.192Z,52.43
2022-08-19T08:01:51.363Z,47.77
2022-08-19T08:04:37.614Z,51.57
2022-08-19T08:07:23.833Z,46.67
2022-08-19T08:09:51.818Z,50.03
2022-08-19T08:12:34.153Z,45.97
2022-08-19T08:15:08.824Z,42.97
2022-08-19T08:17:49.409Z,45.30
2022-08-19T08:20:20.016Z,46.37
2022-08-19T08:23:06.463Z,50.73
2022-08-19T08:25:36.411Z,49.83
2022-08-19T08:28:04.991Z,43.17
2022-08-19T08:30:36.681Z,48.63
2022-08-19T08:33:05.383Z,47.43
2022-08-19T08:35:34.273Z,42.97
2022-08-19T08:38:04.558Z,44.40
2022-08-19T08:40:40.172Z,46.43
2022-08-19T08:43:11.976Z,42.70
2022-08-19T08:45:53.411Z,47.30
2022-08-19T08:48:26.488Z,47.50
2022-08-19T08:50:56.617Z,46.07
2022-08-19T08:53:29.581Z,42.53
2022-08-19T08:55:57.776Z,46.87
2022-08-19T08:58:31.649Z,47.33
2022-08-19T09:01:00.904Z,46.87
2022-08-19T09:03:31.495Z,46.63
2022-08-19T09:06:05.040Z,49.73
2022-08-19T09:08:45.910Z,50.40
2022-08-19T09:11:42.555Z,47.47
2022-08-19T09:14:47.455Z,48.17
2022-08-19T09:17:12.415Z,46.20
2022-08-19T09:19:51.773Z,51.10
2022-08-19T09:22:25.958Z,45.93
2022-08-19T09:24:55.537Z,46.33
2022-08-19T09:27:42.368Z,50.27
2022-08-19T09:30:16.264Z,45.17
2022-08-19T09:32:46.585Z,48.33
2022-08-19T09:35:16.097Z,46.63
2022-08-19T09:37:44.871Z,47.00
2022-08-19T09:40:14.280Z,44.77
2022-08-19T09:42:49.586Z,46.53
2022-08-19T09:45:22.853Z,49.23
2022-08-19T09:47:54.088Z,51.10
2022-08-19T09:50:24.258Z,48.80
2022-08-19T09:52:55.603Z,46.20
2022-08-19T09:55:31.208Z,43.13
2022-08-19T09:58:03.223Z,50.47
2022-08-19T10:00:32.594Z,47.00
2022-08-19T10:03:01.743Z,50.37
2022-08-19T10:05:54.466Z,49.77
2022-08-19T10:08:27.241Z,48.83
2022-08-19T10:10:56.484Z,53.57
2022-08-19T10:13:29.877Z,46.17
2022-08-19T10:16:03.816Z,51.07
2022-08-19T10:18:35.072Z,50.87
2022-08-19T10:21:11.865Z,49.20
2022-08-19T10:23:41.413Z,52.37
2022-08-19T10:26:09.233Z,53.80
2022-08-19T10:28:39.100Z,52.40
2022-08-19T10:31:08.289Z,49.13
2022-08-19T10:33:42.594Z,53.00
2022-08-19T10:36:24.478Z,48.97
2022-08-19T10:38:56.982Z,48.50
2022-08-19T10:41:28.445Z,48.30
2022-08-19T10:43:58.857Z,55.03
2022-08-19T10:46:33.675Z,48.03
2022-08-19T10:49:05.226Z,41.03
2022-08-19T10:51:51.234Z,44.77
2022-08-19T10:54:29.545Z,43.10
2022-08-19T10:57:00.133Z,47.00
2022-08-19T10:59:35.251Z,41.60
2022-08-19T11:02:06.001Z,45.53
2022-08-19T11:04:35.789Z,44.33
2022-08-19T11:07:04.529Z,40.67
2022-08-19T11:09:34.242Z,40.90
2022-08-19T11:12:02.789Z,48.03
2022-08-19T11:14:34.683Z,45.40
2022-08-19T11:17:03.416Z,39.63
2022-08-19T11:19:31.335Z,42.77
2022-08-19T11:22:03.649Z,43.33
2022-08-19T11:24:33.626Z,45.30
2022-08-19T11:27:07.032Z,44.37
2022-08-19T11:29:35.670Z,47.33
2022-08-19T11:32:07.278Z,42.43
2022-08-19T11:34:36.235Z,42.00
2022-08-19T11:37:06.671Z,42.80
2022-08-19T11:39:36.378Z,42.07
2022-08-19T11:42:26.874Z,40.97
2022-08-19T11:44:55.164Z,40.87
2022-08-19T11:47:23.070Z,40.70
2022-08-19T11:49:50.873Z,44.17
2022-08-19T11:52:20.563Z,40.93
2022-08-19T11:54:48.481Z,40.43
2022-08-19T11:57:17.842Z,37.43
2022-08-19T11:59:51.195Z,38.80
2022-08-19T12:02:19.977Z,36.77
2022-08-19T12:04:48.271Z,36.77
2022-08-19T12:07:16.275Z,37.87
2022-08-19T12:09:45.940Z,35.23
2022-08-19T12:12:16.684Z,39.80
2022-08-19T12:14:45.368Z,37.40
2022-08-19T12:17:14.407Z,39.90
2022-08-19T12:19:42.298Z,38.37
2022-08-19T12:22:10.094Z,36.40
2022-08-19T12:24:37.862Z,36.73
2022-08-19T12:27:12.876Z,38.70
2022-08-19T12:29:42.383Z,35.90
2022-08-19T12:32:10.474Z,37.60
2022-08-19T12:34:40.598Z,38.13
2022-08-19T12:37:08.777Z,39.57
2022-08-19T12:39:38.875Z,35.53
2022-08-19T12:42:09.726Z,36.23
2022-08-19T12:44:38.070Z,33.97
2022-08-19T12:47:06.905Z,33.83
2022-08-19T12:49:53.339Z,35.30
2022-08-19T12:52:24.840Z,33.97
2022-08-19T12:54:53.885Z,34.43
2022-08-19T12:57:32.866Z,34.60
2022-08-19T13:00:05.579Z,34.00
2022-08-19T13:02:38.535Z,35.80
2022-08-19T13:05:10.911Z,35.93
2022-08-19T13:07:39.372Z,35.47
2022-08-19T13:10:09.622Z,36.63
2022-08-19T13:12:39.130Z,37.27
2022-08-19T13:15:11.271Z,31.53
2022-08-19T13:17:40.700Z,34.00
2022-08-19T13:20:10.255Z,34.77
2022-08-19T13:22:38.497Z,33.93
2022-08-19T13:25:07.974Z,31.00
2022-08-19T13:27:36.374Z,29.73
2022-08-19T13:30:37.406Z,33.23
2022-08-19T13:33:16.466Z,31.00
2022-08-19T13:35:48.038Z,28.33
2022-08-19T13:38:19.062Z,27.60
2022-08-19T13:40:47.358Z,30.73
2022-08-19T13:43:22.728Z,31.03
2022-08-19T13:45:56.926Z,28.83
2022-08-19T13:48:27.516Z,28.17
2022-08-19T13:50:55.534Z,27.93
2022-08-19T13:53:23.428Z,29.20
2022-08-19T13:55:52.030Z,29.47
2022-08-19T13:58:19.864Z,27.60
2022-08-19T14:00:49.155Z,28.40
2022-08-19T14:03:18.432Z,24.53
2022-08-19T14:05:47.527Z,26.73
2022-08-19T14:08:15.651Z,25.30
2022-08-19T14:10:45.379Z,25.87
2022-08-19T14:13:16.772Z,25.87
2022-08-19T14:15:44.781Z,24.00
2022-08-19T14:18:12.637Z,23.10
2022-08-19T14:20:42.113Z,24.93
2022-08-19T14:23:10.098Z,23.10
2022-08-19T14:25:38.592Z,22.27
2022-08-19T14:28:07.635Z,21.43
2022-08-19T14:30:38.029Z,21.33
2022-08-19T14:33:08.000Z,22.33
2022-08-19T14:35:36.294Z,21.93
2022-08-19T14:38:07.021Z,22.77
2022-08-19T14:40:35.597Z,21.77
2022-08-19T14:43:06.062Z,20.70
2022-08-19T14:45:36.897Z,21.57
2022-08-19T14:48:06.096Z,21.43
2022-08-19T14:50:35.097Z,19.57
2022-08-19T14:53:11.903Z,19.80
2022-08-19T14:55:43.731Z,21.30
2022-08-19T14:58:29.783Z,20.73
2022-08-19T15:01:00.865Z,19.13
2022-08-19T15:03:29.079Z,19.47
2022-08-19T15:05:58.201Z,20.87
2022-08-19T15:08:28.701Z,19.67
2022-08-19T15:10:57.152Z,19.03
2022-08-19T15:13:25.962Z,19.03
2022-08-19T15:15:54.001Z,20.33
2022-08-19T15:18:22.604Z,20.17
2022-08-19T15:20:50.588Z,19.27
2022-08-19T15:23:22.120Z,17.47
2022-08-19T15:25:54.332Z,17.13
2022-08-19T15:28:22.661Z,16.00
2022-08-19T15:30:50.894Z,15.90
2022-08-19T15:33:20.481Z,18.67
2022-08-19T15:35:50.847Z,16.33
2022-08-19T15:38:21.914Z,17.27
2022-08-19T15:40:52.307Z,16.87
2022-08-19T15:43:23.092Z,15.60
2022-08-19T15:45:50.970Z,16.30
2022-08-19T15:48:18.845Z,15.30
2022-08-19T15:50:46.758Z,15.53
2022-08-19T15:53:14.566Z,15.23
2022-08-19T15:55:48.200Z,15.67
2022-08-19T15:58:35.092Z,15.20
2022-08-19T16:01:26.841Z,18.07
2022-08-19T16:04:15.604Z,16.30
2022-08-19T16:06:47.569Z,16.27
2022-08-19T16:09:16.388Z,17.00
2022-08-19T16:11:46.429Z,17.07
2022-08-19T16:14:16.557Z,16.70
2022-08-19T16:16:46.894Z,15.90
2022-08-19T16:19:16.746Z,15.20
2022-08-19T16:21:46.062Z,15.17
2022-08-19T16:24:15.100Z,16.97
2022-08-19T16:26:44.352Z,16.60
2022-08-19T16:29:13.565Z,16.03
2022-08-19T16:31:44.944Z,16.27
2022-08-19T16:34:14.163Z,15.10
2022-08-19T16:36:43.482Z,16.43
2022-08-19T16:39:12.260Z,15.60
2022-08-19T16:41:40.954Z,14.43
2022-08-19T16:44:10.928Z,16.47
2022-08-19T16:46:41.554Z,15.20
2022-08-19T16:49:13.426Z,14.73
2022-08-19T16:51:44.990Z,14.90
2022-08-19T16:54:13.028Z,16.27
2022-08-19T16:56:40.860Z,17.17
2022-08-19T16:59:08.807Z,16.70
2022-08-19T17:01:36.723Z,18.00
2022-08-19T17:04:05.163Z,19.23
2022-08-19T17:06:36.581Z,20.20
2022-08-19T17:09:07.869Z,21.03
2022-08-19T17:11:36.585Z,21.47
2022-08-19T17:14:05.952Z,23.07
2022-08-19T17:16:36.181Z,22.03
2022-08-19T17:19:06.769Z,20.70
2022-08-19T17:21:37.588Z,21.43
2022-08-19T17:24:07.342Z,21.73
2022-08-19T17:26:35.864Z,20.87
2022-08-19T17:29:04.550Z,22.85
2022-08-19T17:31:33.262Z,20.37
2022-08-19T17:34:01.521Z,22.63
2022-08-19T17:36:33.954Z,22.97
2022-08-19T17:39:05.434Z,21.73
2022-08-19T17:41:34.912Z,21.70
2022-08-19T17:44:03.373Z,21.70
2022-08-19T17:46:31.326Z,21.83
2022-08-19T17:48:59.338Z,22.90
2022-08-19T17:51:41.980Z,22.47
2022-08-19T17:54:13.982Z,23.97
2022-08-19T17:56:42.226Z,21.93
2022-08-19T17:59:14.242Z,24.93
2022-08-19T18:01:53.112Z,24.73
2022-08-19T18:04:23.951Z,25.37
2022-08-19T18:06:54.059Z,25.63
2022-08-19T18:09:26.178Z,24.13
2022-08-19T18:11:55.495Z,24.57
2022-08-19T18:14:33.028Z,26.03
2022-08-19T18:17:02.983Z,24.90
2022-08-19T18:19:42.208Z,24.87
2022-08-19T18:22:12.339Z,24.43
2022-08-19T18:24:42.201Z,24.90
2022-08-19T18:27:10.446Z,23.77
2022-08-19T18:29:40.073Z,23.80
2022-08-19T18:32:12.422Z,23.90
2022-08-19T18:34:41.030Z,22.83
2022-08-19T18:37:08.786Z,24.37
2022-08-19T18:39:54.957Z,21.63
2022-08-19T18:42:41.843Z,22.73
2022-08-19T18:45:27.922Z,21.00
2022-08-19T18:48:26.876Z,21.30
2022-08-19T18:51:00.116Z,20.47
2022-08-19T18:53:29.846Z,21.67
2022-08-19T18:55:57.922Z,22.03
2022-08-19T18:58:32.148Z,21.47
2022-08-19T19:01:00.661Z,22.53
2022-08-19T19:03:28.858Z,21.33
2022-08-19T19:05:56.822Z,19.40
2022-08-19T19:08:26.734Z,20.60
2022-08-19T19:10:56.778Z,21.30
2022-08-19T19:13:24.643Z,17.03
2022-08-19T19:15:54.374Z,20.27
2022-08-19T19:18:22.184Z,20.30
2022-08-19T19:20:49.978Z,21.13
2022-08-19T19:23:17.845Z,21.47
2022-08-19T19:25:50.187Z,22.17
2022-08-19T19:28:25.039Z,21.63
2022-08-19T19:30:57.517Z,21.13
2022-08-19T19:33:25.728Z,21.20
2022-08-19T19:35:53.509Z,21.93
2022-08-19T19:38:21.474Z,21.57
2022-08-19T19:40:49.306Z,21.40
2022-08-19T19:43:18.131Z,23.30
2022-08-19T19:45:48.160Z,22.33
2022-08-19T19:48:17.547Z,23.63
2022-08-19T19:50:53.997Z,22.80
2022-08-19T19:53:25.956Z,22.37
2022-08-19T19:55:54.821Z,22.63
2022-08-19T19:58:28.507Z,22.20
2022-08-19T20:00:57.580Z,22.77
2022-08-19T20:03:26.949Z,23.63
2022-08-19T20:05:55.084Z,23.57
2022-08-19T20:08:40.364Z,23.70
2022-08-19T20:11:08.542Z,23.20
2022-08-19T20:13:39.490Z,22.67
2022-08-19T20:16:07.862Z,23.43
2022-08-19T20:18:38.791Z,23.10
2022-08-19T20:21:07.076Z,22.83
2022-08-19T20:23:35.138Z,24.37
2022-08-19T20:26:03.029Z,24.20
2022-08-19T20:28:31.916Z,23.23
2022-08-19T20:31:00.252Z,24.57
2022-08-19T20:33:30.070Z,25.30
2022-08-19T20:35:59.442Z,24.53
2022-08-19T20:38:27.321Z,23.83
2022-08-19T20:40:55.229Z,24.30
2022-08-19T20:43:23.069Z,25.80
2022-08-19T20:45:50.934Z,27.23
2022-08-19T20:48:18.769Z,27.20
2022-08-19T20:50:47.610Z,26.87
2022-08-19T20:53:22.829Z,25.83
2022-08-19T20:55:51.657Z,25.03
2022-08-19T20:58:22.209Z,25.43
2022-08-19T21:00:52.342Z,25.10
2022-08-19T21:03:22.359Z,23.47
2022-08-19T21:05:50.558Z,24.43
2022-08-19T21:08:19.970Z,23.53
2022-08-19T21:10:49.236Z,23.57
2022-08-19T21:13:18.025Z,24.67
2022-08-19T21:15:46.158Z,25.37
2022-08-19T21:18:16.155Z,24.60
2022-08-19T21:20:45.089Z,23.90
2022-08-19T21:23:15.802Z,22.27
2022-08-19T21:25:54.254Z,25.67
2022-08-19T21:28:34.432Z,26.37
2022-08-19T21:31:05.220Z,25.83
2022-08-19T21:33:33.173Z,28.03
2022-08-19T21:36:02.484Z,26.97
2022-08-19T21:38:30.562Z,27.07
2022-08-19T21:41:00.244Z,25.27
2022-08-19T21:43:33.748Z,26.57
2022-08-19T21:46:01.685Z,26.83
2022-08-19T21:48:29.612Z,29.20
2022-08-19T21:50:57.422Z,29.53
2022-08-19T21:53:25.669Z,27.97
2022-08-19T21:56:03.618Z,31.50
2022-08-19T21:58:31.497Z,28.50
2022-08-19T22:00:59.869Z,27.73
2022-08-19T22:03:28.211Z,30.97
2022-08-19T22:05:56.092Z,28.00
2022-08-19T22:08:23.878Z,28.90
2022-08-19T22:10:52.531Z,28.43
2022-08-19T22:13:21.751Z,28.43
2022-08-19T22:15:51.802Z,29.50
2022-08-19T22:18:19.749Z,31.47
2022-08-19T22:20:48.743Z,30.17
2022-08-19T22:23:16.562Z,31.83
2022-08-19T22:25:46.746Z,32.03
2022-08-19T22:28:19.071Z,32.70
2022-08-19T22:30:57.352Z,34.53
2022-08-19T22:33:27.566Z,33.70
2022-08-19T22:35:55.629Z,33.47
2022-08-19T22:38:23.934Z,35.27
2022-08-19T22:40:53.706Z,35.83
2022-08-19T22:43:23.923Z,35.57
2022-08-19T22:45:53.528Z,33.47
2022-08-19T22:48:25.445Z,33.90
2022-08-19T22:51:11.942Z,31.47
2022-08-19T22:53:42.113Z,31.27
2022-08-19T22:56:15.168Z,34.10
2022-08-19T22:58:43.661Z,33.87
2022-08-19T23:01:14.704Z,32.13
2022-08-19T23:03:56.515Z,32.97
2022-08-19T23:06:29.749Z,31.63
2022-08-19T23:09:02.162Z,35.80
2022-08-19T23:11:35.487Z,33.13
2022-08-19T23:14:04.879Z,35.60
2022-08-19T23:16:35.304Z,35.50
2022-08-19T23:19:04.838Z,36.57
2022-08-19T23:21:32.734Z,30.50
2022-08-19T23:24:00.667Z,34.93
2022-08-19T23:26:30.708Z,32.20
2022-08-19T23:29:21.870Z,33.63
2022-08-19T23:31:49.815Z,36.37
2022-08-19T23:34:19.047Z,35.57
2022-08-19T23:36:48.365Z,36.57
2022-08-19T23:39:16.216Z,34.57
2022-08-19T23:41:44.081Z,33.70
2022-08-19T23:44:14.516Z,34.37
2022-08-19T23:46:54.621Z,33.83
2022-08-19T23:49:25.376Z,36.07
2022-08-19T23:51:54.253Z,33.93
2022-08-19T23:54:22.883Z,36.17
2022-08-19T23:57:14.645Z,37.97
2022-08-19T23:59:44.984Z,37.03
